sensor_id;sensor_type;location;lat;lon;timestamp;pressure;altitude;pressure_sealevel;temperature;humidity
73941;BME280;62294;48.554;10.202;2023-12-28T00:01:46;95690.81;;;-0.39;100.00
73941;BME280;62294;48.554;10.202;2023-12-28T00:04:13;95682.34;;;-0.33;100.00
73941;BME280;62294;48.554;10.202;2023-12-28T00:06:39;95667.69;;;-0.02;100.00
73941;BME280;62294;48.554;10.202;2023-12-28T00:09:07;95667.53;;;0.08;100.00
73941;BME280;62294;48.554;10.202;2023-12-28T00:11:38;95669.00;;;0.11;100.00
73941;BME280;62294;48.554;10.202;2023-12-28T00:14:04;95681.38;;;-0.16;100.00
73941;BME280;62294;48.554;10.202;2023-12-28T00:16:32;95691.16;;;-0.34;100.00
73941;BME280;62294;48.554;10.202;2023-12-28T00:18:59;95685.63;;;-0.07;100.00
73941;BME280;62294;48.554;10.202;2023-12-28T00:21:30;95673.56;;;0.17;100.00
73941;BME280;62294;48.554;10.202;2023-12-28T00:23:56;95664.41;;;0.21;100.00
73941;BME280;62294;48.554;10.202;2023-12-28T00:26:23;95664.22;;;0.30;100.00
73941;BME280;62294;48.554;10.202;2023-12-28T00:28:50;95676.50;;;0.22;100.00
73941;BME280;62294;48.554;10.202;2023-12-28T00:31:16;95678.28;;;0.21;100.00
73941;BME280;62294;48.554;10.202;2023-12-28T00:33:43;95679.44;;;0.19;100.00
73941;BME280;62294;48.554;10.202;2023-12-28T00:36:10;95668.16;;;0.10;100.00
73941;BME280;62294;48.554;10.202;2023-12-28T00:38:36;95658.53;;;0.19;100.00
73941;BME280;62294;48.554;10.202;2023-12-28T00:41:03;95664.09;;;0.16;100.00
73941;BME280;62294;48.554;10.202;2023-12-28T00:43:29;95675.50;;;0.15;100.00
73941;BME280;62294;48.554;10.202;2023-12-28T00:45:56;95686.47;;;0.10;100.00
73941;BME280;62294;48.554;10.202;2023-12-28T00:48:23;95684.66;;;0.11;100.00
73941;BME280;62294;48.554;10.202;2023-12-28T00:50:50;95680.09;;;0.13;100.00
73941;BME280;62294;48.554;10.202;2023-12-28T00:53:16;95664.72;;;0.10;100.00
73941;BME280;62294;48.554;10.202;2023-12-28T00:55:43;95674.03;;;0.12;100.00
73941;BME280;62294;48.554;10.202;2023-12-28T00:58:09;95680.09;;;-0.04;100.00
73941;BME280;62294;48.554;10.202;2023-12-28T01:00:36;95686.78;;;-0.09;100.00
73941;BME280;62294;48.554;10.202;2023-12-28T01:03:03;95693.16;;;-0.12;100.00
73941;BME280;62294;48.554;10.202;2023-12-28T01:05:29;95687.09;;;-0.04;100.00
73941;BME280;62294;48.554;10.202;2023-12-28T01:07:56;95686.63;;;0.00;100.00
73941;BME280;62294;48.554;10.202;2023-12-28T01:10:23;95700.81;;;-0.10;100.00
73941;BME280;62294;48.554;10.202;2023-12-28T01:12:50;95692.50;;;-0.22;100.00
73941;BME280;62294;48.554;10.202;2023-12-28T01:15:16;95688.09;;;-0.21;100.00
73941;BME280;62294;48.554;10.202;2023-12-28T01:17:44;95682.69;;;-0.04;100.00
73941;BME280;62294;48.554;10.202;2023-12-28T01:20:11;95685.63;;;0.10;100.00
73941;BME280;62294;48.554;10.202;2023-12-28T01:22:38;95686.94;;;0.22;100.00
73941;BME280;62294;48.554;10.202;2023-12-28T01:25:05;95693.63;;;0.16;100.00
73941;BME280;62294;48.554;10.202;2023-12-28T01:27:31;95699.34;;;-0.05;100.00
73941;BME280;62294;48.554;10.202;2023-12-28T01:29:58;95707.16;;;-0.29;100.00
73941;BME280;62294;48.554;10.202;2023-12-28T01:32:25;95711.25;;;-0.26;100.00
73941;BME280;62294;48.554;10.202;2023-12-28T01:34:51;95709.59;;;-0.27;100.00
73941;BME280;62294;48.554;10.202;2023-12-28T01:37:18;95701.47;;;-0.24;100.00
73941;BME280;62294;48.554;10.202;2023-12-28T01:39:45;95683.38;;;-0.10;100.00
73941;BME280;62294;48.554;10.202;2023-12-28T01:42:11;95684.19;;;-0.01;100.00
73941;BME280;62294;48.554;10.202;2023-12-28T01:44:38;95685.63;;;0.10;100.00
73941;BME280;62294;48.554;10.202;2023-12-28T01:47:05;95688.25;;;0.02;100.00
73941;BME280;62294;48.554;10.202;2023-12-28T01:49:33;95698.38;;;-0.28;100.00
73941;BME280;62294;48.554;10.202;2023-12-28T01:52:02;95704.88;;;-0.40;100.00
73941;BME280;62294;48.554;10.202;2023-12-28T01:54:29;95704.03;;;-0.48;100.00
73941;BME280;62294;48.554;10.202;2023-12-28T01:56:57;95702.09;;;-0.46;100.00
73941;BME280;62294;48.554;10.202;2023-12-28T01:59:24;95701.72;;;-0.51;100.00
73941;BME280;62294;48.554;10.202;2023-12-28T02:01:51;95703.91;;;-0.31;100.00
73941;BME280;62294;48.554;10.202;2023-12-28T02:04:18;95706.81;;;-0.34;100.00
73941;BME280;62294;48.554;10.202;2023-12-28T02:06:56;95703.91;;;-0.31;100.00
73941;BME280;62294;48.554;10.202;2023-12-28T02:09:23;95714.63;;;-0.50;100.00
73941;BME280;62294;48.554;10.202;2023-12-28T02:11:50;95715.97;;;-0.46;100.00
73941;BME280;62294;48.554;10.202;2023-12-28T02:14:17;95708.16;;;-0.22;100.00
73941;BME280;62294;48.554;10.202;2023-12-28T02:16:46;95713.22;;;-0.28;100.00
73941;BME280;62294;48.554;10.202;2023-12-28T02:19:49;95703.75;;;-0.21;100.00
73941;BME280;62294;48.554;10.202;2023-12-28T02:22:17;95690.03;;;-0.15;100.00
73941;BME280;62294;48.554;10.202;2023-12-28T02:25:05;95692.16;;;-0.11;100.00
73941;BME280;62294;48.554;10.202;2023-12-28T02:27:38;95681.41;;;-0.08;100.00
73941;BME280;62294;48.554;10.202;2023-12-28T02:30:06;95683.66;;;-0.05;100.00
73941;BME280;62294;48.554;10.202;2023-12-28T02:32:54;95691.50;;;-0.13;100.00
73941;BME280;62294;48.554;10.202;2023-12-28T02:35:28;95697.41;;;-0.19;100.00
73941;BME280;62294;48.554;10.202;2023-12-28T02:37:58;95697.38;;;-0.27;100.00
73941;BME280;62294;48.554;10.202;2023-12-28T02:40:26;95704.88;;;-0.40;100.00
73941;BME280;62294;48.554;10.202;2023-12-28T02:42:54;95703.56;;;-0.36;100.00
73941;BME280;62294;48.554;10.202;2023-12-28T02:45:21;95708.28;;;-0.39;100.00
73941;BME280;62294;48.554;10.202;2023-12-28T02:47:47;95707.81;;;-0.27;100.00
73941;BME280;62294;48.554;10.202;2023-12-28T02:50:14;95701.47;;;-0.24;100.00
73941;BME280;62294;48.554;10.202;2023-12-28T02:52:40;95707.47;;;-0.32;100.00
73941;BME280;62294;48.554;10.202;2023-12-28T02:55:07;95704.69;;;-0.38;100.00
73941;BME280;62294;48.554;10.202;2023-12-28T02:57:34;95706.00;;;-0.42;100.00
73941;BME280;62294;48.554;10.202;2023-12-28T03:00:05;95705.03;;;-0.33;100.00
73941;BME280;62294;48.554;10.202;2023-12-28T03:02:32;95682.88;;;-0.21;100.00
73941;BME280;62294;48.554;10.202;2023-12-28T03:04:58;95684.81;;;-0.15;100.00
73941;BME280;62294;48.554;10.202;2023-12-28T03:07:25;95681.72;;;-0.11;100.00
73941;BME280;62294;48.554;10.202;2023-12-28T03:09:52;95677.47;;;-0.28;100.00
73941;BME280;62294;48.554;10.202;2023-12-28T03:12:19;95688.22;;;-0.31;100.00
73941;BME280;62294;48.554;10.202;2023-12-28T03:14:45;95685.97;;;-0.10;100.00
73941;BME280;62294;48.554;10.202;2023-12-28T03:17:12;95683.84;;;-0.06;100.00
73941;BME280;62294;48.554;10.202;2023-12-28T03:19:39;95675.69;;;-0.03;100.00
73941;BME280;62294;48.554;10.202;2023-12-28T03:22:05;95685.81;;;-0.16;100.00
73941;BME280;62294;48.554;10.202;2023-12-28T03:24:32;95688.03;;;-0.45;100.00
73941;BME280;62294;48.554;10.202;2023-12-28T03:26:59;95688.16;;;-0.63;100.00
73941;BME280;62294;48.554;10.202;2023-12-28T03:29:27;95686.03;;;-0.67;100.00
73941;BME280;62294;48.554;10.202;2023-12-28T03:31:53;95680.50;;;-0.56;100.00
73941;BME280;62294;48.554;10.202;2023-12-28T03:34:20;95697.00;;;-0.56;100.00
73941;BME280;62294;48.554;10.202;2023-12-28T03:36:49;95692.25;;;-0.68;100.00
73941;BME280;62294;48.554;10.202;2023-12-28T03:39:16;95687.19;;;-0.62;100.00
73941;BME280;62294;48.554;10.202;2023-12-28T03:41:43;95682.00;;;-0.54;100.00
73941;BME280;62294;48.554;10.202;2023-12-28T03:44:10;95677.41;;;-0.60;100.00
73941;BME280;62294;48.554;10.202;2023-12-28T03:46:36;95678.69;;;-0.72;100.00
73941;BME280;62294;48.554;10.202;2023-12-28T03:49:03;95669.56;;;-0.68;100.00
73941;BME280;62294;48.554;10.202;2023-12-28T03:51:30;95673.19;;;-0.45;100.00
73941;BME280;62294;48.554;10.202;2023-12-28T03:53:56;95672.84;;;-0.50;100.00
73941;BME280;62294;48.554;10.202;2023-12-28T03:56:24;95663.38;;;-0.59;100.00
73941;BME280;62294;48.554;10.202;2023-12-28T03:58:52;95667.63;;;-0.50;100.00
73941;BME280;62294;48.554;10.202;2023-12-28T04:01:19;95663.91;;;-0.39;100.00
73941;BME280;62294;48.554;10.202;2023-12-28T04:03:48;95650.03;;;-0.16;100.00
73941;BME280;62294;48.554;10.202;2023-12-28T04:06:15;95644.16;;;-0.02;100.00
73941;BME280;62294;48.554;10.202;2023-12-28T04:08:42;95645.16;;;0.06;100.00
73941;BME280;62294;48.554;10.202;2023-12-28T04:11:09;95647.44;;;0.09;100.00
73941;BME280;62294;48.554;10.202;2023-12-28T04:13:36;95647.75;;;0.06;100.00
73941;BME280;62294;48.554;10.202;2023-12-28T04:16:03;95648.06;;;0.03;100.00
73941;BME280;62294;48.554;10.202;2023-12-28T04:18:29;95658.88;;;-0.33;100.00
73941;BME280;62294;48.554;10.202;2023-12-28T04:20:56;95673.03;;;-0.59;100.00
73941;BME280;62294;48.554;10.202;2023-12-28T04:23:23;95673.13;;;-0.77;100.00
73941;BME280;62294;48.554;10.202;2023-12-28T04:25:50;95669.84;;;-0.87;100.00
73941;BME280;62294;48.554;10.202;2023-12-28T04:28:16;95674.06;;;-0.94;100.00
73941;BME280;62294;48.554;10.202;2023-12-28T04:30:43;95669.13;;;-0.97;100.00
73941;BME280;62294;48.554;10.202;2023-12-28T04:33:10;95660.03;;;-0.93;100.00
73941;BME280;62294;48.554;10.202;2023-12-28T04:35:36;95659.91;;;-0.84;100.00
73941;BME280;62294;48.554;10.202;2023-12-28T04:38:03;95660.50;;;-0.98;100.00
73941;BME280;62294;48.554;10.202;2023-12-28T04:40:30;95666.69;;;-0.99;100.00
73941;BME280;62294;48.554;10.202;2023-12-28T04:42:56;95656.16;;;-0.89;100.00
73941;BME280;62294;48.554;10.202;2023-12-28T04:45:23;95659.09;;;-0.76;100.00
73941;BME280;62294;48.554;10.202;2023-12-28T04:47:50;95645.28;;;-0.68;100.00
73941;BME280;62294;48.554;10.202;2023-12-28T04:50:16;95632.44;;;-0.30;100.00
73941;BME280;62294;48.554;10.202;2023-12-28T04:52:43;95617.38;;;0.13;100.00
73941;BME280;62294;48.554;10.202;2023-12-28T04:55:10;95618.19;;;0.29;100.00
73941;BME280;62294;48.554;10.202;2023-12-28T04:57:36;95620.28;;;0.26;100.00
73941;BME280;62294;48.554;10.202;2023-12-28T05:00:04;95628.13;;;0.26;100.00
73941;BME280;62294;48.554;10.202;2023-12-28T05:02:31;95634.34;;;0.25;100.00
73941;BME280;62294;48.554;10.202;2023-12-28T05:04:57;95644.81;;;0.17;100.00
73941;BME280;62294;48.554;10.202;2023-12-28T05:07:24;95652.81;;;0.15;100.00
73941;BME280;62294;48.554;10.202;2023-12-28T05:09:50;95650.03;;;0.17;100.00
73941;BME280;62294;48.554;10.202;2023-12-28T05:12:17;95652.16;;;0.21;100.00
73941;BME280;62294;48.554;10.202;2023-12-28T05:14:44;95648.88;;;0.19;100.00
73941;BME280;62294;48.554;10.202;2023-12-28T05:17:10;95652.00;;;0.23;100.00
73941;BME280;62294;48.554;10.202;2023-12-28T05:19:37;95651.66;;;0.34;100.00
73941;BME280;62294;48.554;10.202;2023-12-28T05:22:04;95649.66;;;0.52;100.00
73941;BME280;62294;48.554;10.202;2023-12-28T05:24:32;95669.56;;;0.61;100.00
73941;BME280;62294;48.554;10.202;2023-12-28T05:26:59;95682.16;;;0.65;100.00
73941;BME280;62294;48.554;10.202;2023-12-28T05:29:25;95683.91;;;0.73;100.00
73941;BME280;62294;48.554;10.202;2023-12-28T05:31:52;95689.47;;;0.78;100.00
73941;BME280;62294;48.554;10.202;2023-12-28T05:34:19;95700.25;;;0.83;100.00
73941;BME280;62294;48.554;10.202;2023-12-28T05:36:45;95704.00;;;0.89;100.00
73941;BME280;62294;48.554;10.202;2023-12-28T05:39:12;95706.28;;;0.84;100.00
73941;BME280;62294;48.554;10.202;2023-12-28T05:41:41;95710.69;;;0.83;100.00
73941;BME280;62294;48.554;10.202;2023-12-28T05:44:08;95709.75;;;0.76;100.00
73941;BME280;62294;48.554;10.202;2023-12-28T05:46:35;95720.88;;;0.70;100.00
73941;BME280;62294;48.554;10.202;2023-12-28T05:49:01;95705.38;;;0.60;100.00
73941;BME280;62294;48.554;10.202;2023-12-28T05:51:28;95701.59;;;0.63;100.00
73941;BME280;62294;48.554;10.202;2023-12-28T05:53:55;95683.75;;;0.66;100.00
73941;BME280;62294;48.554;10.202;2023-12-28T05:56:21;95686.53;;;0.81;100.00
73941;BME280;62294;48.554;10.202;2023-12-28T05:58:48;95695.28;;;0.96;100.00
73941;BME280;62294;48.554;10.202;2023-12-28T06:01:14;95698.22;;;1.01;100.00
73941;BME280;62294;48.554;10.202;2023-12-28T06:03:41;95715.91;;;0.99;100.00
73941;BME280;62294;48.554;10.202;2023-12-28T06:06:08;95717.53;;;1.00;100.00
73941;BME280;62294;48.554;10.202;2023-12-28T06:08:35;95723.06;;;1.05;100.00
73941;BME280;62294;48.554;10.202;2023-12-28T06:11:02;95730.75;;;1.07;100.00
73941;BME280;62294;48.554;10.202;2023-12-28T06:13:29;95736.78;;;1.15;100.00
73941;BME280;62294;48.554;10.202;2023-12-28T06:15:55;95737.75;;;1.22;100.00
73941;BME280;62294;48.554;10.202;2023-12-28T06:18:22;95759.00;;;1.27;100.00
73941;BME280;62294;48.554;10.202;2023-12-28T06:20:49;95755.88;;;1.24;100.00
73941;BME280;62294;48.554;10.202;2023-12-28T06:23:15;95771.59;;;1.24;100.00
73941;BME280;62294;48.554;10.202;2023-12-28T06:25:42;95769.13;;;1.30;100.00
73941;BME280;62294;48.554;10.202;2023-12-28T06:28:09;95774.06;;;1.25;100.00
73941;BME280;62294;48.554;10.202;2023-12-28T06:30:36;95768.19;;;1.15;100.00
73941;BME280;62294;48.554;10.202;2023-12-28T06:33:02;95766.25;;;1.09;100.00
73941;BME280;62294;48.554;10.202;2023-12-28T06:35:29;95784.06;;;1.06;100.00
73941;BME280;62294;48.554;10.202;2023-12-28T06:37:56;95767.72;;;1.12;100.00
73941;BME280;62294;48.554;10.202;2023-12-28T06:40:23;95778.63;;;1.23;100.00
73941;BME280;62294;48.554;10.202;2023-12-28T06:42:49;95785.47;;;1.32;100.00
73941;BME280;62294;48.554;10.202;2023-12-28T06:45:16;95775.00;;;1.32;100.00
73941;BME280;62294;48.554;10.202;2023-12-28T06:47:43;95779.91;;;1.35;100.00
73941;BME280;62294;48.554;10.202;2023-12-28T06:50:10;95781.53;;;1.36;100.00
73941;BME280;62294;48.554;10.202;2023-12-28T06:52:36;95789.41;;;1.28;100.00
73941;BME280;62294;48.554;10.202;2023-12-28T06:55:03;95778.28;;;1.34;100.00
73941;BME280;62294;48.554;10.202;2023-12-28T06:57:30;95763.94;;;1.53;100.00
73941;BME280;62294;48.554;10.202;2023-12-28T06:59:57;95769.50;;;1.58;100.00
73941;BME280;62294;48.554;10.202;2023-12-28T07:02:26;95766.50;;;1.69;100.00
73941;BME280;62294;48.554;10.202;2023-12-28T07:04:52;95786.66;;;1.69;100.00
73941;BME280;62294;48.554;10.202;2023-12-28T07:07:19;95790.44;;;1.58;100.00
73941;BME280;62294;48.554;10.202;2023-12-28T07:09:45;95795.34;;;1.61;100.00
73941;BME280;62294;48.554;10.202;2023-12-28T07:12:12;95802.97;;;1.79;100.00
73941;BME280;62294;48.554;10.202;2023-12-28T07:14:38;95811.13;;;1.84;100.00
73941;BME280;62294;48.554;10.202;2023-12-28T07:17:05;95816.50;;;1.90;100.00
73941;BME280;62294;48.554;10.202;2023-12-28T07:19:32;95818.78;;;1.93;100.00
73941;BME280;62294;48.554;10.202;2023-12-28T07:21:59;95825.13;;;1.99;100.00
73941;BME280;62294;48.554;10.202;2023-12-28T07:24:26;95831.84;;;2.01;100.00
73941;BME280;62294;48.554;10.202;2023-12-28T07:26:52;95832.03;;;2.00;100.00
73941;BME280;62294;48.554;10.202;2023-12-28T07:29:19;95846.72;;;2.09;100.00
73941;BME280;62294;48.554;10.202;2023-12-28T07:31:45;95857.09;;;2.02;100.00
73941;BME280;62294;48.554;10.202;2023-12-28T07:34:12;95861.81;;;2.07;100.00
73941;BME280;62294;48.554;10.202;2023-12-28T07:36:39;95870.63;;;2.14;100.00
73941;BME280;62294;48.554;10.202;2023-12-28T07:39:09;95868.78;;;2.23;100.00
73941;BME280;62294;48.554;10.202;2023-12-28T07:41:36;95882.78;;;2.38;100.00
73941;BME280;62294;48.554;10.202;2023-12-28T07:44:03;95891.78;;;2.43;100.00
73941;BME280;62294;48.554;10.202;2023-12-28T07:46:30;95918.00;;;2.43;100.00
73941;BME280;62294;48.554;10.202;2023-12-28T07:48:56;95938.66;;;2.38;100.00
73941;BME280;62294;48.554;10.202;2023-12-28T07:51:23;95956.31;;;2.52;100.00
73941;BME280;62294;48.554;10.202;2023-12-28T07:53:49;95980.31;;;2.72;100.00
73941;BME280;62294;48.554;10.202;2023-12-28T07:56:16;96000.72;;;2.62;100.00
73941;BME280;62294;48.554;10.202;2023-12-28T07:58:43;96005.34;;;2.52;100.00
73941;BME280;62294;48.554;10.202;2023-12-28T08:01:10;96016.25;;;2.71;100.00
73941;BME280;62294;48.554;10.202;2023-12-28T08:03:37;96030.19;;;3.03;100.00
73941;BME280;62294;48.554;10.202;2023-12-28T08:06:04;96039.59;;;3.20;100.00
73941;BME280;62294;48.554;10.202;2023-12-28T08:08:31;96047.34;;;3.36;100.00
73941;BME280;62294;48.554;10.202;2023-12-28T08:10:58;96076.53;;;3.49;100.00
73941;BME280;62294;48.554;10.202;2023-12-28T08:13:24;96090.59;;;2.95;100.00
73941;BME280;62294;48.554;10.202;2023-12-28T08:15:51;96089.50;;;2.81;100.00
73941;BME280;62294;48.554;10.202;2023-12-28T08:18:17;96090.81;;;2.85;100.00
73941;BME280;62294;48.554;10.202;2023-12-28T08:20:44;96092.56;;;3.01;100.00
73941;BME280;62294;48.554;10.202;2023-12-28T08:23:11;96078.09;;;3.05;100.00
73941;BME280;62294;48.554;10.202;2023-12-28T08:25:44;96080.41;;;3.00;100.00
73941;BME280;62294;48.554;10.202;2023-12-28T08:28:10;96096.00;;;3.01;100.00
73941;BME280;62294;48.554;10.202;2023-12-28T08:30:37;96090.50;;;3.11;100.00
73941;BME280;62294;48.554;10.202;2023-12-28T08:33:04;96093.75;;;3.21;100.00
73941;BME280;62294;48.554;10.202;2023-12-28T08:35:31;96099.31;;;3.26;100.00
73941;BME280;62294;48.554;10.202;2023-12-28T08:37:57;96100.09;;;3.26;100.00
73941;BME280;62294;48.554;10.202;2023-12-28T08:40:24;96107.00;;;3.27;100.00
73941;BME280;62294;48.554;10.202;2023-12-28T08:42:52;96118.38;;;3.50;100.00
73941;BME280;62294;48.554;10.202;2023-12-28T08:45:18;96124.16;;;3.69;100.00
73941;BME280;62294;48.554;10.202;2023-12-28T08:47:45;96134.88;;;3.90;100.00
73941;BME280;62294;48.554;10.202;2023-12-28T08:50:12;96140.78;;;3.92;100.00
73941;BME280;62294;48.554;10.202;2023-12-28T08:52:38;96151.28;;;3.92;100.00
73941;BME280;62294;48.554;10.202;2023-12-28T08:55:05;96154.44;;;3.87;100.00
73941;BME280;62294;48.554;10.202;2023-12-28T08:57:32;96148.53;;;3.85;100.00
73941;BME280;62294;48.554;10.202;2023-12-28T09:00:09;96148.81;;;3.90;100.00
73941;BME280;62294;48.554;10.202;2023-12-28T09:02:35;96144.59;;;4.04;100.00
73941;BME280;62294;48.554;10.202;2023-12-28T09:05:02;96150.00;;;4.10;100.00
73941;BME280;62294;48.554;10.202;2023-12-28T09:07:29;96154.97;;;4.05;100.00
73941;BME280;62294;48.554;10.202;2023-12-28T09:09:55;96162.84;;;4.05;100.00
73941;BME280;62294;48.554;10.202;2023-12-28T09:12:22;96163.53;;;3.99;100.00
73941;BME280;62294;48.554;10.202;2023-12-28T09:14:48;96157.28;;;4.00;100.00
73941;BME280;62294;48.554;10.202;2023-12-28T09:17:22;96163.06;;;3.96;100.00
73941;BME280;62294;48.554;10.202;2023-12-28T09:19:49;96162.31;;;3.87;100.00
73941;BME280;62294;48.554;10.202;2023-12-28T09:22:16;96159.06;;;3.85;100.00
73941;BME280;62294;48.554;10.202;2023-12-28T09:24:43;96154.75;;;3.92;100.00
73941;BME280;62294;48.554;10.202;2023-12-28T09:27:10;96155.53;;;3.93;100.00
73941;BME280;62294;48.554;10.202;2023-12-28T09:29:36;96155.66;;;3.99;100.00
73941;BME280;62294;48.554;10.202;2023-12-28T09:32:03;96169.56;;;4.08;100.00
73941;BME280;62294;48.554;10.202;2023-12-28T09:34:30;96172.03;;;4.09;100.00
73941;BME280;62294;48.554;10.202;2023-12-28T09:36:56;96173.28;;;4.13;100.00
73941;BME280;62294;48.554;10.202;2023-12-28T09:39:24;96183.06;;;4.27;100.00
73941;BME280;62294;48.554;10.202;2023-12-28T09:42:04;96187.25;;;4.37;100.00
73941;BME280;62294;48.554;10.202;2023-12-28T09:44:32;96186.44;;;4.36;100.00
73941;BME280;62294;48.554;10.202;2023-12-28T09:47:01;96181.94;;;4.45;100.00
73941;BME280;62294;48.554;10.202;2023-12-28T09:49:30;96182.13;;;4.58;100.00
73941;BME280;62294;48.554;10.202;2023-12-28T09:51:57;96189.50;;;4.62;100.00
73941;BME280;62294;48.554;10.202;2023-12-28T09:54:24;96195.78;;;4.76;100.00
73941;BME280;62294;48.554;10.202;2023-12-28T09:56:51;96196.72;;;4.83;100.00
73941;BME280;62294;48.554;10.202;2023-12-28T09:59:19;96194.38;;;4.88;100.00
73941;BME280;62294;48.554;10.202;2023-12-28T10:01:45;96192.97;;;5.07;100.00
73941;BME280;62294;48.554;10.202;2023-12-28T10:04:15;96190.53;;;5.05;100.00
73941;BME280;62294;48.554;10.202;2023-12-28T10:06:42;96180.00;;;5.05;100.00
73941;BME280;62294;48.554;10.202;2023-12-28T10:09:09;96179.47;;;4.95;100.00
73941;BME280;62294;48.554;10.202;2023-12-28T10:11:36;96180.34;;;5.02;100.00
73941;BME280;62294;48.554;10.202;2023-12-28T10:14:03;96175.28;;;4.86;100.00
73941;BME280;62294;48.554;10.202;2023-12-28T10:16:30;96172.91;;;4.91;100.00
73941;BME280;62294;48.554;10.202;2023-12-28T10:18:57;96176.00;;;5.09;100.00
73941;BME280;62294;48.554;10.202;2023-12-28T10:21:24;96183.56;;;5.12;100.00
73941;BME280;62294;48.554;10.202;2023-12-28T10:23:51;96176.28;;;5.14;100.00
73941;BME280;62294;48.554;10.202;2023-12-28T10:26:18;96173.38;;;5.09;100.00
73941;BME280;62294;48.554;10.202;2023-12-28T10:28:45;96177.84;;;5.09;100.00
73941;BME280;62294;48.554;10.202;2023-12-28T10:31:12;96167.38;;;5.15;100.00
73941;BME280;62294;48.554;10.202;2023-12-28T10:33:39;96172.81;;;5.14;100.00
73941;BME280;62294;48.554;10.202;2023-12-28T10:36:08;96163.47;;;5.11;100.00
73941;BME280;62294;48.554;10.202;2023-12-28T10:38:36;96160.56;;;5.21;100.00
73941;BME280;62294;48.554;10.202;2023-12-28T10:41:06;96158.38;;;5.24;100.00
73941;BME280;62294;48.554;10.202;2023-12-28T10:43:48;96157.91;;;5.35;100.00
73941;BME280;62294;48.554;10.202;2023-12-28T10:46:27;96156.91;;;5.36;100.00
73941;BME280;62294;48.554;10.202;2023-12-28T10:48:59;96163.53;;;5.47;100.00
73941;BME280;62294;48.554;10.202;2023-12-28T10:51:26;96177.06;;;5.58;100.00
73941;BME280;62294;48.554;10.202;2023-12-28T10:56:45;96177.97;;;5.65;100.00
73941;BME280;62294;48.554;10.202;2023-12-28T10:59:26;96181.38;;;5.81;100.00
73941;BME280;62294;48.554;10.202;2023-12-28T11:01:59;96182.81;;;5.83;100.00
73941;BME280;62294;48.554;10.202;2023-12-28T11:04:38;96188.75;;;5.85;100.00
73941;BME280;62294;48.554;10.202;2023-12-28T11:07:10;96197.75;;;5.91;100.00
73941;BME280;62294;48.554;10.202;2023-12-28T11:09:41;96192.53;;;5.97;100.00
73941;BME280;62294;48.554;10.202;2023-12-28T11:12:08;96190.53;;;5.99;100.00
73941;BME280;62294;48.554;10.202;2023-12-28T11:14:39;96201.50;;;6.03;100.00
73941;BME280;62294;48.554;10.202;2023-12-28T11:17:06;96203.53;;;6.01;100.00
73941;BME280;62294;48.554;10.202;2023-12-28T11:19:33;96213.09;;;6.02;100.00
73941;BME280;62294;48.554;10.202;2023-12-28T11:22:02;96199.50;;;6.05;100.00
73941;BME280;62294;48.554;10.202;2023-12-28T11:24:30;96193.44;;;6.04;100.00
73941;BME280;62294;48.554;10.202;2023-12-28T11:26:58;96193.03;;;6.07;100.00
73941;BME280;62294;48.554;10.202;2023-12-28T11:29:25;96196.00;;;6.19;100.00
73941;BME280;62294;48.554;10.202;2023-12-28T11:31:52;96186.56;;;6.10;100.00
73941;BME280;62294;48.554;10.202;2023-12-28T11:34:19;96189.22;;;6.10;100.00
73941;BME280;62294;48.554;10.202;2023-12-28T11:36:52;96177.53;;;6.19;100.00
73941;BME280;62294;48.554;10.202;2023-12-28T11:39:34;96168.72;;;6.12;100.00
73941;BME280;62294;48.554;10.202;2023-12-28T11:42:07;96165.47;;;6.10;100.00
73941;BME280;62294;48.554;10.202;2023-12-28T11:44:43;96153.50;;;6.14;100.00
73941;BME280;62294;48.554;10.202;2023-12-28T11:47:15;96153.91;;;6.11;100.00
73941;BME280;62294;48.554;10.202;2023-12-28T11:49:42;96138.41;;;6.01;100.00
73941;BME280;62294;48.554;10.202;2023-12-28T11:52:29;96134.88;;;5.94;100.00
73941;BME280;62294;48.554;10.202;2023-12-28T11:54:56;96122.50;;;5.95;100.00
73941;BME280;62294;48.554;10.202;2023-12-28T11:57:23;96116.97;;;5.90;100.00
73941;BME280;62294;48.554;10.202;2023-12-28T11:59:55;96111.69;;;5.90;100.00
73941;BME280;62294;48.554;10.202;2023-12-28T12:02:23;96131.97;;;5.89;100.00
73941;BME280;62294;48.554;10.202;2023-12-28T12:04:54;96135.44;;;5.90;100.00
73941;BME280;62294;48.554;10.202;2023-12-28T12:07:21;96132.53;;;5.85;100.00
73941;BME280;62294;48.554;10.202;2023-12-28T12:09:48;96131.81;;;5.91;100.00
73941;BME280;62294;48.554;10.202;2023-12-28T12:12:16;96135.91;;;5.93;100.00
73941;BME280;62294;48.554;10.202;2023-12-28T12:14:43;96129.78;;;5.93;100.00
73941;BME280;62294;48.554;10.202;2023-12-28T12:17:09;96134.56;;;6.04;100.00
73941;BME280;62294;48.554;10.202;2023-12-28T12:19:37;96131.16;;;6.10;100.00
73941;BME280;62294;48.554;10.202;2023-12-28T12:22:03;96139.34;;;6.15;100.00
73941;BME280;62294;48.554;10.202;2023-12-28T12:24:31;96150.97;;;6.20;100.00
73941;BME280;62294;48.554;10.202;2023-12-28T12:26:59;96147.19;;;6.29;100.00
73941;BME280;62294;48.554;10.202;2023-12-28T12:29:31;96139.69;;;6.33;100.00
73941;BME280;62294;48.554;10.202;2023-12-28T12:31:58;96142.59;;;6.38;100.00
73941;BME280;62294;48.554;10.202;2023-12-28T12:34:25;96127.00;;;6.43;100.00
73941;BME280;62294;48.554;10.202;2023-12-28T12:36:52;96134.47;;;6.39;100.00
73941;BME280;62294;48.554;10.202;2023-12-28T12:39:23;96134.50;;;6.46;100.00
73941;BME280;62294;48.554;10.202;2023-12-28T12:41:51;96136.47;;;6.37;100.00
73941;BME280;62294;48.554;10.202;2023-12-28T12:44:20;96134.66;;;6.38;100.00
73941;BME280;62294;48.554;10.202;2023-12-28T12:46:47;96128.50;;;6.31;100.00
73941;BME280;62294;48.554;10.202;2023-12-28T12:49:15;96123.03;;;6.32;100.00
73941;BME280;62294;48.554;10.202;2023-12-28T12:51:45;96133.53;;;6.26;100.00
73941;BME280;62294;48.554;10.202;2023-12-28T12:54:11;96124.22;;;6.30;100.00